sensor_id;sensor_type;location;lat;lon;timestamp;pressure;altitude;pressure_sealevel;temperature;humidity
12146;BME280;6136;47.032;15.398;2022-10-15T00:01:27;97566.97;;;10.73;nan
12146;BME280;6136;47.032;15.398;2022-10-15T00:03:56;97561.84;;;10.70;nan
12146;BME280;6136;47.032;15.398;2022-10-15T00:06:24;97563.16;;;10.63;nan
12146;BME280;6136;47.032;15.398;2022-10-15T00:08:54;97567.06;;;10.57;nan
12146;BME280;6136;47.032;15.398;2022-10-15T00:11:24;97572.63;;;10.52;nan
12146;BME280;6136;47.032;15.398;2022-10-15T00:13:54;97576.50;;;10.47;nan
12146;BME280;6136;47.032;15.398;2022-10-15T00:16:24;97567.91;;;10.43;nan
12146;BME280;6136;47.032;15.398;2022-10-15T00:18:55;97575.28;;;10.38;nan
12146;BME280;6136;47.032;15.398;2022-10-15T00:21:24;97574.72;;;10.33;nan
12146;BME280;6136;47.032;15.398;2022-10-15T00:23:54;97574.88;;;10.30;nan
12146;BME280;6136;47.032;15.398;2022-10-15T00:26:24;97567.06;;;10.29;nan
12146;BME280;6136;47.032;15.398;2022-10-15T00:28:54;97568.94;;;10.27;nan
12146;BME280;6136;47.032;15.398;2022-10-15T00:31:24;97567.31;;;10.24;nan
12146;BME280;6136;47.032;15.398;2022-10-15T00:33:54;97562.31;;;10.20;nan
12146;BME280;6136;47.032;15.398;2022-10-15T00:36:24;97553.88;;;10.13;nan
12146;BME280;6136;47.032;15.398;2022-10-15T00:38:54;97559.06;;;10.15;nan
12146;BME280;6136;47.032;15.398;2022-10-15T00:41:24;97544.03;;;10.15;nan
12146;BME280;6136;47.032;15.398;2022-10-15T00:43:55;97549.69;;;10.09;nan
12146;BME280;6136;47.032;15.398;2022-10-15T00:46:26;97542.88;;;10.05;nan
12146;BME280;6136;47.032;15.398;2022-10-15T00:48:57;97545.53;;;10.05;nan
12146;BME280;6136;47.032;15.398;2022-10-15T00:51:30;97544.00;;;10.01;nan
12146;BME280;6136;47.032;15.398;2022-10-15T00:54:01;97536.25;;;9.98;nan
12146;BME280;6136;47.032;15.398;2022-10-15T00:56:30;97533.69;;;9.96;nan
12146;BME280;6136;47.032;15.398;2022-10-15T00:59:00;97533.88;;;9.93;nan
12146;BME280;6136;47.032;15.398;2022-10-15T01:01:28;97529.34;;;9.95;nan
12146;BME280;6136;47.032;15.398;2022-10-15T01:03:57;97538.44;;;9.91;nan
12146;BME280;6136;47.032;15.398;2022-10-15T01:06:25;97533.22;;;9.90;nan
12146;BME280;6136;47.032;15.398;2022-10-15T01:08:54;97536.81;;;9.89;nan
12146;BME280;6136;47.032;15.398;2022-10-15T01:11:38;97522.53;;;9.91;nan
12146;BME280;6136;47.032;15.398;2022-10-15T01:14:25;97512.03;;;9.90;nan
12146;BME280;6136;47.032;15.398;2022-10-15T01:17:02;97513.75;;;9.91;nan
12146;BME280;6136;47.032;15.398;2022-10-15T01:19:55;97517.91;;;9.95;nan
12146;BME280;6136;47.032;15.398;2022-10-15T01:22:37;97521.31;;;9.97;nan
12146;BME280;6136;47.032;15.398;2022-10-15T01:25:25;97514.53;;;9.93;nan
12146;BME280;6136;47.032;15.398;2022-10-15T01:28:08;97511.34;;;9.86;nan
12146;BME280;6136;47.032;15.398;2022-10-15T01:30:46;97508.63;;;9.88;nan
12146;BME280;6136;47.032;15.398;2022-10-15T01:33:25;97509.56;;;9.87;nan
12146;BME280;6136;47.032;15.398;2022-10-15T01:36:02;97507.78;;;9.87;nan
12146;BME280;6136;47.032;15.398;2022-10-15T01:38:42;97500.69;;;9.88;nan
12146;BME280;6136;47.032;15.398;2022-10-15T01:41:17;97506.06;;;9.86;nan
12146;BME280;6136;47.032;15.398;2022-10-15T01:43:57;97498.88;;;9.88;nan
12146;BME280;6136;47.032;15.398;2022-10-15T01:46:38;97495.31;;;9.89;nan
12146;BME280;6136;47.032;15.398;2022-10-15T01:49:12;97498.72;;;9.91;nan
12146;BME280;6136;47.032;15.398;2022-10-15T01:51:43;97485.41;;;9.93;nan
12146;BME280;6136;47.032;15.398;2022-10-15T01:54:14;97481.78;;;9.94;nan
12146;BME280;6136;47.032;15.398;2022-10-15T01:56:45;97485.19;;;9.96;nan
12146;BME280;6136;47.032;15.398;2022-10-15T01:59:19;97490.31;;;9.99;nan
12146;BME280;6136;47.032;15.398;2022-10-15T02:01:50;97485.88;;;9.99;nan
12146;BME280;6136;47.032;15.398;2022-10-15T02:04:21;97485.75;;;10.01;nan
12146;BME280;6136;47.032;15.398;2022-10-15T02:06:52;97482.25;;;10.00;nan
12146;BME280;6136;47.032;15.398;2022-10-15T02:09:31;97479.53;;;10.02;nan
12146;BME280;6136;47.032;15.398;2022-10-15T02:12:09;97477.63;;;10.04;nan
12146;BME280;6136;47.032;15.398;2022-10-15T02:14:46;97474.81;;;10.07;nan
12146;BME280;6136;47.032;15.398;2022-10-15T02:17:26;97478.09;;;10.10;nan
12146;BME280;6136;47.032;15.398;2022-10-15T02:20:00;97463.75;;;10.15;nan
12146;BME280;6136;47.032;15.398;2022-10-15T02:22:36;97466.13;;;10.19;nan
12146;BME280;6136;47.032;15.398;2022-10-15T02:25:09;97455.53;;;10.19;nan
12146;BME280;6136;47.032;15.398;2022-10-15T02:27:43;97454.22;;;10.26;nan
12146;BME280;6136;47.032;15.398;2022-10-15T02:30:14;97458.75;;;10.24;nan
12146;BME280;6136;47.032;15.398;2022-10-15T02:32:50;97456.69;;;10.29;nan
12146;BME280;6136;47.032;15.398;2022-10-15T02:35:21;97443.13;;;10.34;nan
12146;BME280;6136;47.032;15.398;2022-10-15T02:37:52;97443.03;;;10.35;nan
12146;BME280;6136;47.032;15.398;2022-10-15T02:40:23;97441.41;;;10.47;nan
12146;BME280;6136;47.032;15.398;2022-10-15T02:42:55;97433.44;;;10.47;nan
12146;BME280;6136;47.032;15.398;2022-10-15T02:45:23;97419.25;;;10.48;nan
12146;BME280;6136;47.032;15.398;2022-10-15T02:47:53;97428.06;;;10.48;nan
12146;BME280;6136;47.032;15.398;2022-10-15T02:50:23;97430.31;;;10.55;nan
12146;BME280;6136;47.032;15.398;2022-10-15T02:52:51;97430.53;;;10.52;nan
12146;BME280;6136;47.032;15.398;2022-10-15T02:55:19;97432.03;;;10.56;nan
12146;BME280;6136;47.032;15.398;2022-10-15T02:57:47;97444.09;;;10.60;nan
12146;BME280;6136;47.032;15.398;2022-10-15T03:00:16;97438.16;;;10.56;nan
12146;BME280;6136;47.032;15.398;2022-10-15T03:02:48;97434.75;;;10.54;nan
12146;BME280;6136;47.032;15.398;2022-10-15T03:05:19;97429.56;;;10.52;nan
12146;BME280;6136;47.032;15.398;2022-10-15T03:07:47;97424.38;;;10.51;nan
12146;BME280;6136;47.032;15.398;2022-10-15T03:10:15;97418.63;;;10.44;nan
12146;BME280;6136;47.032;15.398;2022-10-15T03:12:43;97422.41;;;10.40;nan
12146;BME280;6136;47.032;15.398;2022-10-15T03:15:12;97420.69;;;10.39;nan
12146;BME280;6136;47.032;15.398;2022-10-15T03:17:43;97420.91;;;10.36;nan
12146;BME280;6136;47.032;15.398;2022-10-15T03:20:14;97422.78;;;10.34;nan
12146;BME280;6136;47.032;15.398;2022-10-15T03:22:44;97419.38;;;10.32;nan
12146;BME280;6136;47.032;15.398;2022-10-15T03:25:12;97415.03;;;10.31;nan
12146;BME280;6136;47.032;15.398;2022-10-15T03:27:40;97418.75;;;10.29;nan
12146;BME280;6136;47.032;15.398;2022-10-15T03:30:20;97420.81;;;10.24;nan
12146;BME280;6136;47.032;15.398;2022-10-15T03:32:49;97421.88;;;10.21;nan
12146;BME280;6136;47.032;15.398;2022-10-15T03:35:17;97413.94;;;10.21;nan
12146;BME280;6136;47.032;15.398;2022-10-15T03:37:47;97407.13;;;10.17;nan
12146;BME280;6136;47.032;15.398;2022-10-15T03:40:15;97407.38;;;10.12;nan
12146;BME280;6136;47.032;15.398;2022-10-15T03:42:49;97411.81;;;10.12;nan
12146;BME280;6136;47.032;15.398;2022-10-15T03:45:22;97414.66;;;10.09;nan
12146;BME280;6136;47.032;15.398;2022-10-15T03:48:04;97422.81;;;10.06;nan
12146;BME280;6136;47.032;15.398;2022-10-15T03:50:33;97423.84;;;10.03;nan
12146;BME280;6136;47.032;15.398;2022-10-15T03:53:03;97424.88;;;10.01;nan
12146;BME280;6136;47.032;15.398;2022-10-15T03:55:33;97420.44;;;10.01;nan
12146;BME280;6136;47.032;15.398;2022-10-15T03:58:01;97415.03;;;10.03;nan
12146;BME280;6136;47.032;15.398;2022-10-15T04:00:29;97414.09;;;10.04;nan
12146;BME280;6136;47.032;15.398;2022-10-15T04:03:01;97422.50;;;10.10;nan
12146;BME280;6136;47.032;15.398;2022-10-15T04:05:29;97422.81;;;10.06;nan
12146;BME280;6136;47.032;15.398;2022-10-15T04:08:04;97423.94;;;10.02;nan
12146;BME280;6136;47.032;15.398;2022-10-15T04:10:35;97425.44;;;10.06;nan
12146;BME280;6136;47.032;15.398;2022-10-15T04:13:05;97419.22;;;10.07;nan
12146;BME280;6136;47.032;15.398;2022-10-15T04:15:34;97421.00;;;10.06;nan
12146;BME280;6136;47.032;15.398;2022-10-15T04:18:06;97427.03;;;10.08;nan
12146;BME280;6136;47.032;15.398;2022-10-15T04:20:35;97426.00;;;10.11;nan
12146;BME280;6136;47.032;15.398;2022-10-15T04:23:12;97430.28;;;10.13;nan
12146;BME280;6136;47.032;15.398;2022-10-15T04:25:47;97429.22;;;10.16;nan
12146;BME280;6136;47.032;15.398;2022-10-15T04:28:16;97432.84;;;10.15;nan
12146;BME280;6136;47.032;15.398;2022-10-15T04:30:45;97434.63;;;10.15;nan
12146;BME280;6136;47.032;15.398;2022-10-15T04:33:17;97428.34;;;10.16;nan
12146;BME280;6136;47.032;15.398;2022-10-15T04:35:45;97423.91;;;10.16;nan
12146;BME280;6136;47.032;15.398;2022-10-15T04:38:26;97434.34;;;10.19;nan
12146;BME280;6136;47.032;15.398;2022-10-15T04:41:04;97430.00;;;10.18;nan
12146;BME280;6136;47.032;15.398;2022-10-15T04:44:08;97431.53;;;10.22;nan
12146;BME280;6136;47.032;15.398;2022-10-15T04:46:37;97423.59;;;10.22;nan
12146;BME280;6136;47.032;15.398;2022-10-15T04:49:21;97428.75;;;10.24;nan
12146;BME280;6136;47.032;15.398;2022-10-15T04:51:49;97418.94;;;10.26;nan
12146;BME280;6136;47.032;15.398;2022-10-15T04:54:22;97427.81;;;10.25;nan
12146;BME280;6136;47.032;15.398;2022-10-15T04:57:00;97431.31;;;10.25;nan
12146;BME280;6136;47.032;15.398;2022-10-15T04:59:29;97432.56;;;10.20;nan
12146;BME280;6136;47.032;15.398;2022-10-15T05:02:20;97417.53;;;10.20;nan
12146;BME280;6136;47.032;15.398;2022-10-15T05:04:54;97420.44;;;10.30;nan
12146;BME280;6136;47.032;15.398;2022-10-15T05:07:23;97417.69;;;10.31;nan
12146;BME280;6136;47.032;15.398;2022-10-15T05:09:54;97417.50;;;10.34;nan
12146;BME280;6136;47.032;15.398;2022-10-15T05:12:22;97408.16;;;10.29;nan
12146;BME280;6136;47.032;15.398;2022-10-15T05:14:51;97415.78;;;10.33;nan
12146;BME280;6136;47.032;15.398;2022-10-15T05:17:25;97405.97;;;10.35;nan
12146;BME280;6136;47.032;15.398;2022-10-15T05:19:54;97406.72;;;10.37;nan
12146;BME280;6136;47.032;15.398;2022-10-15T05:22:25;97400.56;;;10.37;nan
12146;BME280;6136;47.032;15.398;2022-10-15T05:24:59;97408.22;;;10.41;nan
12146;BME280;6136;47.032;15.398;2022-10-15T05:27:29;97412.75;;;10.39;nan
12146;BME280;6136;47.032;15.398;2022-10-15T05:29:59;97416.06;;;10.43;nan
12146;BME280;6136;47.032;15.398;2022-10-15T05:32:56;97417.78;;;10.44;nan
12146;BME280;6136;47.032;15.398;2022-10-15T05:35:24;97416.69;;;10.46;nan
12146;BME280;6136;47.032;15.398;2022-10-15T05:38:00;97409.53;;;10.48;nan
12146;BME280;6136;47.032;15.398;2022-10-15T05:40:31;97413.88;;;10.49;nan
12146;BME280;6136;47.032;15.398;2022-10-15T05:43:11;97418.00;;;10.54;nan
12146;BME280;6136;47.032;15.398;2022-10-15T05:45:39;97415.09;;;10.58;nan
12146;BME280;6136;47.032;15.398;2022-10-15T05:48:07;97410.41;;;10.62;nan
12146;BME280;6136;47.032;15.398;2022-10-15T05:50:36;97415.72;;;10.62;nan
12146;BME280;6136;47.032;15.398;2022-10-15T05:53:08;97423.41;;;10.66;nan
12146;BME280;6136;47.032;15.398;2022-10-15T05:55:44;97427.44;;;10.72;nan
12146;BME280;6136;47.032;15.398;2022-10-15T05:58:12;97417.88;;;10.69;nan
12146;BME280;6136;47.032;15.398;2022-10-15T06:00:41;97424.56;;;10.75;nan
12146;BME280;6136;47.032;15.398;2022-10-15T06:03:11;97426.09;;;10.79;nan
12146;BME280;6136;47.032;15.398;2022-10-15T06:05:40;97425.03;;;10.81;nan
12146;BME280;6136;47.032;15.398;2022-10-15T06:08:08;97423.03;;;10.85;nan
12146;BME280;6136;47.032;15.398;2022-10-15T06:10:37;97428.44;;;10.83;nan
12146;BME280;6136;47.032;15.398;2022-10-15T06:13:07;97429.00;;;10.88;nan
12146;BME280;6136;47.032;15.398;2022-10-15T06:15:38;97428.59;;;10.95;nan
12146;BME280;6136;47.032;15.398;2022-10-15T06:18:08;97436.44;;;10.96;nan
12146;BME280;6136;47.032;15.398;2022-10-15T06:20:37;97429.97;;;11.00;nan
12146;BME280;6136;47.032;15.398;2022-10-15T06:23:06;97445.69;;;11.03;nan
12146;BME280;6136;47.032;15.398;2022-10-15T06:25:34;97447.72;;;11.12;nan
12146;BME280;6136;47.032;15.398;2022-10-15T06:28:05;97454.53;;;11.16;nan
12146;BME280;6136;47.032;15.398;2022-10-15T06:30:41;97450.72;;;11.20;nan
12146;BME280;6136;47.032;15.398;2022-10-15T06:33:09;97453.94;;;11.25;nan
12146;BME280;6136;47.032;15.398;2022-10-15T06:35:40;97451.63;;;11.34;nan
12146;BME280;6136;47.032;15.398;2022-10-15T06:38:08;97448.31;;;11.30;nan
12146;BME280;6136;47.032;15.398;2022-10-15T06:40:37;97444.59;;;11.33;nan
12146;BME280;6136;47.032;15.398;2022-10-15T06:43:06;97458.81;;;11.32;nan
12146;BME280;6136;47.032;15.398;2022-10-15T06:45:36;97459.44;;;11.35;nan
12146;BME280;6136;47.032;15.398;2022-10-15T06:48:12;97458.09;;;11.42;nan
12146;BME280;6136;47.032;15.398;2022-10-15T06:50:40;97460.88;;;11.41;nan
12146;BME280;6136;47.032;15.398;2022-10-15T06:53:08;97461.16;;;11.49;nan
12146;BME280;6136;47.032;15.398;2022-10-15T06:55:36;97464.38;;;11.54;nan
12146;BME280;6136;47.032;15.398;2022-10-15T06:58:05;97459.38;;;11.49;nan
12146;BME280;6136;47.032;15.398;2022-10-15T07:00:33;97457.91;;;11.58;nan
12146;BME280;6136;47.032;15.398;2022-10-15T07:03:07;97458.31;;;11.64;nan
12146;BME280;6136;47.032;15.398;2022-10-15T07:05:36;97462.59;;;11.67;nan
12146;BME280;6136;47.032;15.398;2022-10-15T07:08:06;97458.41;;;11.77;nan
12146;BME280;6136;47.032;15.398;2022-10-15T07:10:34;97472.94;;;11.84;nan
12146;BME280;6136;47.032;15.398;2022-10-15T07:13:02;97469.72;;;11.79;nan
12146;BME280;6136;47.032;15.398;2022-10-15T07:15:31;97481.63;;;11.86;nan
12146;BME280;6136;47.032;15.398;2022-10-15T07:17:59;97477.31;;;11.85;nan
12146;BME280;6136;47.032;15.398;2022-10-15T07:20:29;97472.19;;;11.82;nan
12146;BME280;6136;47.032;15.398;2022-10-15T07:23:00;97475.47;;;11.86;nan
12146;BME280;6136;47.032;15.398;2022-10-15T07:25:30;97476.56;;;11.83;nan
12146;BME280;6136;47.032;15.398;2022-10-15T07:27:58;97482.47;;;11.87;nan
12146;BME280;6136;47.032;15.398;2022-10-15T07:30:27;97482.38;;;11.88;nan
12146;BME280;6136;47.032;15.398;2022-10-15T07:32:55;97489.41;;;11.89;nan
12146;BME280;6136;47.032;15.398;2022-10-15T07:35:24;97490.16;;;11.91;nan
12146;BME280;6136;47.032;15.398;2022-10-15T07:37:52;97493.13;;;11.99;nan
12146;BME280;6136;47.032;15.398;2022-10-15T07:40:22;97497.47;;;12.00;nan
12146;BME280;6136;47.032;15.398;2022-10-15T07:42:51;97494.41;;;12.07;nan
12146;BME280;6136;47.032;15.398;2022-10-15T07:45:23;97495.44;;;12.17;nan
12146;BME280;6136;47.032;15.398;2022-10-15T07:47:52;97490.06;;;12.05;nan
12146;BME280;6136;47.032;15.398;2022-10-15T07:50:21;97490.81;;;12.08;nan
12146;BME280;6136;47.032;15.398;2022-10-15T07:52:52;97490.38;;;12.14;nan
12146;BME280;6136;47.032;15.398;2022-10-15T07:55:22;97485.06;;;12.14;nan
12146;BME280;6136;47.032;15.398;2022-10-15T07:57:51;97485.69;;;12.17;nan
12146;BME280;6136;47.032;15.398;2022-10-15T08:00:19;97480.25;;;12.19;nan
12146;BME280;6136;47.032;15.398;2022-10-15T08:02:47;97476.84;;;12.17;nan
12146;BME280;6136;47.032;15.398;2022-10-15T08:05:18;97477.41;;;12.22;nan
12146;BME280;6136;47.032;15.398;2022-10-15T08:07:47;97469.94;;;12.27;nan
12146;BME280;6136;47.032;15.398;2022-10-15T08:10:15;97470.69;;;12.29;nan
12146;BME280;6136;47.032;15.398;2022-10-15T08:12:46;97478.44;;;12.32;nan
12146;BME280;6136;47.032;15.398;2022-10-15T08:15:14;97481.09;;;12.32;nan
12146;BME280;6136;47.032;15.398;2022-10-15T08:17:42;97483.09;;;12.41;nan
12146;BME280;6136;47.032;15.398;2022-10-15T08:20:14;97489.03;;;12.57;nan
12146;BME280;6136;47.032;15.398;2022-10-15T08:22:42;97484.69;;;12.56;nan
12146;BME280;6136;47.032;15.398;2022-10-15T08:25:11;97490.81;;;12.69;nan
12146;BME280;6136;47.032;15.398;2022-10-15T08:27:39;97483.16;;;12.65;nan
12146;BME280;6136;47.032;15.398;2022-10-15T08:30:10;97495.38;;;12.67;nan
12146;BME280;6136;47.032;15.398;2022-10-15T08:32:38;97490.59;;;12.72;nan
12146;BME280;6136;47.032;15.398;2022-10-15T08:35:07;97483.69;;;12.70;nan
12146;BME280;6136;47.032;15.398;2022-10-15T08:37:35;97486.03;;;12.74;nan
12146;BME280;6136;47.032;15.398;2022-10-15T08:40:04;97487.00;;;12.73;nan
12146;BME280;6136;47.032;15.398;2022-10-15T08:42:36;97484.53;;;12.70;nan
12146;BME280;6136;47.032;15.398;2022-10-15T08:45:11;97481.44;;;12.76;nan
12146;BME280;6136;47.032;15.398;2022-10-15T08:47:42;97486.84;;;12.75;nan
12146;BME280;6136;47.032;15.398;2022-10-15T08:50:19;97496.22;;;12.80;nan
12146;BME280;6136;47.032;15.398;2022-10-15T08:52:54;97494.72;;;12.76;nan
12146;BME280;6136;47.032;15.398;2022-10-15T08:55:28;97508.22;;;12.86;nan
12146;BME280;6136;47.032;15.398;2022-10-15T08:58:02;97501.69;;;12.90;nan
12146;BME280;6136;47.032;15.398;2022-10-15T09:00:41;97492.88;;;12.90;nan
12146;BME280;6136;47.032;15.398;2022-10-15T09:03:23;97493.06;;;12.99;nan
12146;BME280;6136;47.032;15.398;2022-10-15T09:06:01;97484.63;;;13.05;nan
12146;BME280;6136;47.032;15.398;2022-10-15T09:08:39;97477.88;;;13.25;nan
12146;BME280;6136;47.032;15.398;2022-10-15T09:11:12;97490.09;;;13.28;nan
12146;BME280;6136;47.032;15.398;2022-10-15T09:13:45;97475.75;;;13.41;nan
12146;BME280;6136;47.032;15.398;2022-10-15T09:16:25;97482.34;;;13.48;nan
12146;BME280;6136;47.032;15.398;2022-10-15T09:18:55;97480.34;;;13.63;nan
12146;BME280;6136;47.032;15.398;2022-10-15T09:21:25;97478.75;;;13.60;nan
12146;BME280;6136;47.032;15.398;2022-10-15T09:23:55;97493.44;;;13.77;nan
12146;BME280;6136;47.032;15.398;2022-10-15T09:26:29;97492.34;;;13.80;nan
12146;BME280;6136;47.032;15.398;2022-10-15T09:29:10;97509.94;;;13.93;nan
12146;BME280;6136;47.032;15.398;2022-10-15T09:31:45;97501.13;;;14.04;nan
12146;BME280;6136;47.032;15.398;2022-10-15T09:34:20;97495.44;;;14.09;nan
12146;BME280;6136;47.032;15.398;2022-10-15T09:36:55;97497.25;;;14.08;nan
12146;BME280;6136;47.032;15.398;2022-10-15T09:39:43;97494.84;;;14.05;nan
12146;BME280;6136;47.032;15.398;2022-10-15T09:42:23;97496.66;;;14.16;nan
12146;BME280;6136;47.032;15.398;2022-10-15T09:44:55;97494.97;;;14.26;nan
12146;BME280;6136;47.032;15.398;2022-10-15T09:47:27;97497.75;;;14.24;nan
12146;BME280;6136;47.032;15.398;2022-10-15T09:49:59;97494.75;;;14.29;nan
12146;BME280;6136;47.032;15.398;2022-10-15T09:52:41;97491.25;;;14.40;nan
12146;BME280;6136;47.032;15.398;2022-10-15T09:55:26;97505.81;;;14.58;nan
12146;BME280;6136;47.032;15.398;2022-10-15T09:58:02;97488.09;;;14.79;nan
12146;BME280;6136;47.032;15.398;2022-10-15T10:01:00;97502.63;;;14.75;nan
12146;BME280;6136;47.032;15.398;2022-10-15T10:03:41;97508.94;;;14.85;nan
12146;BME280;6136;47.032;15.398;2022-10-15T10:06:13;97506.38;;;14.84;nan
12146;BME280;6136;47.032;15.398;2022-10-15T10:08:49;97495.59;;;14.96;nan
12146;BME280;6136;47.032;15.398;2022-10-15T10:11:22;97497.94;;;15.22;nan
12146;BME280;6136;47.032;15.398;2022-10-15T10:13:53;97490.88;;;15.32;nan
12146;BME280;6136;47.032;15.398;2022-10-15T10:16:23;97493.22;;;15.25;nan
12146;BME280;6136;47.032;15.398;2022-10-15T10:19:09;97493.03;;;15.38;nan
12146;BME280;6136;47.032;15.398;2022-10-15T10:21:40;97490.69;;;15.12;nan
12146;BME280;6136;47.032;15.398;2022-10-15T10:24:23;97495.44;;;14.98;nan
12146;BME280;6136;47.032;15.398;2022-10-15T10:26:54;97488.06;;;15.01;nan
12146;BME280;6136;47.032;15.398;2022-10-15T10:29:24;97485.66;;;14.76;nan
12146;BME280;6136;47.032;15.398;2022-10-15T10:32:09;97490.75;;;14.79;nan
12146;BME280;6136;47.032;15.398;2022-10-15T10:34:42;97482.59;;;15.03;nan
12146;BME280;6136;47.032;15.398;2022-10-15T10:37:15;97484.91;;;14.96;nan
12146;BME280;6136;47.032;15.398;2022-10-15T10:39:44;97496.06;;;15.01;nan
12146;BME280;6136;47.032;15.398;2022-10-15T10:42:24;97488.56;;;15.27;nan
12146;BME280;6136;47.032;15.398;2022-10-15T10:44:53;97486.97;;;15.36;nan
12146;BME280;6136;47.032;15.398;2022-10-15T10:47:23;97494.00;;;15.48;nan
12146;BME280;6136;47.032;15.398;2022-10-15T10:49:57;97487.56;;;15.71;nan
12146;BME280;6136;47.032;15.398;2022-10-15T10:52:27;97491.69;;;15.75;nan
12146;BME280;6136;47.032;15.398;2022-10-15T10:55:00;97487.34;;;15.74;nan
12146;BME280;6136;47.032;15.398;2022-10-15T10:57:37;97490.13;;;15.73;nan
12146;BME280;6136;47.032;15.398;2022-10-15T11:00:13;97480.28;;;15.73;nan
12146;BME280;6136;47.032;15.398;2022-10-15T11:02:47;97479.31;;;15.95;nan
12146;BME280;6136;47.032;15.398;2022-10-15T11:05:29;97483.03;;;16.04;nan
12146;BME280;6136;47.032;15.398;2022-10-15T11:08:05;97474.16;;;16.03;nan
12146;BME280;6136;47.032;15.398;2022-10-15T11:10:41;97487.53;;;16.03;nan
12146;BME280;6136;47.032;15.398;2022-10-15T11:13:27;97491.81;;;15.74;nan
12146;BME280;6136;47.032;15.398;2022-10-15T11:16:00;97481.06;;;15.64;nan
12146;BME280;6136;47.032;15.398;2022-10-15T11:18:41;97482.00;;;15.74;nan
12146;BME280;6136;47.032;15.398;2022-10-15T11:21:27;97476.84;;;15.62;nan
12146;BME280;6136;47.032;15.398;2022-10-15T11:24:10;97475.25;;;16.01;nan
12146;BME280;6136;47.032;15.398;2022-10-15T11:26:54;97477.44;;;16.07;nan
12146;BME280;6136;47.032;15.398;2022-10-15T11:29:43;97473.44;;;16.22;nan
12146;BME280;6136;47.032;15.398;2022-10-15T11:32:21;97471.63;;;16.02;nan
12146;BME280;6136;47.032;15.398;2022-10-15T11:35:14;97467.47;;;16.39;nan
12146;BME280;6136;47.032;15.398;2022-10-15T11:38:11;97467.13;;;16.02;nan
12146;BME280;6136;47.032;15.398;2022-10-15T11:40:50;97466.13;;;16.24;nan
12146;BME280;6136;47.032;15.398;2022-10-15T11:43:36;97463.91;;;16.08;nan
12146;BME280;6136;47.032;15.398;2022-10-15T11:46:13;97479.84;;;15.89;nan
12146;BME280;6136;47.032;15.398;2022-10-15T11:48:54;97470.66;;;15.61;nan
12146;BME280;6136;47.032;15.398;2022-10-15T11:51:32;97461.47;;;15.54;nan
12146;BME280;6136;47.032;15.398;2022-10-15T11:54:12;97455.06;;;15.66;nan
12146;BME280;6136;47.032;15.398;2022-10-15T11:56:45;97459.06;;;15.93;nan
12146;BME280;6136;47.032;15.398;2022-10-15T11:59:31;97457.91;;;15.85;nan
12146;BME280;6136;47.032;15.398;2022-10-15T12:02:05;97455.50;;;16.13;nan
12146;BME280;6136;47.032;15.398;2022-10-15T12:04:39;97460.66;;;16.05;nan
12146;BME280;6136;47.032;15.398;2022-10-15T12:07:14;97467.59;;;16.07;nan
12146;BME280;6136;47.032;15.398;2022-10-15T12:09:47;97468.44;;;16.08;nan
12146;BME280;6136;47.032;15.398;2022-10-15T12:12:26;97469.22;;;15.99;nan
12146;BME280;6136;47.032;15.398;2022-10-15T12:15:06;97470.00;;;15.89;nan
12146;BME280;6136;47.032;15.398;2022-10-15T12:17:45;97457.88;;;15.65;nan
12146;BME280;6136;47.032;15.398;2022-10-15T12:20:19;97462.19;;;15.56;nan
12146;BME280;6136;47.032;15.398;2022-10-15T12:22:56;97455.00;;;15.57;nan
12146;BME280;6136;47.032;15.398;2022-10-15T12:25:45;97462.22;;;15.66;nan
12146;BME280;6136;47.032;15.398;2022-10-15T12:28:22;97458.03;;;15.63;nan
12146;BME280;6136;47.032;15.398;2022-10-15T12:30:57;97470.78;;;15.80;nan
12146;BME280;6136;47.032;15.398;2022-10-15T12:33:32;97461.13;;;15.68;nan
12146;BME280;6136;47.032;15.398;2022-10-15T12:36:04;97457.50;;;15.69;nan
12146;BME280;6136;47.032;15.398;2022-10-15T12:38:37;97466.19;;;15.71;nan
12146;BME280;6136;47.032;15.398;2022-10-15T12:41:10;97474.94;;;15.73;nan
12146;BME280;6136;47.032;15.398;2022-10-15T12:43:42;97466.69;;;15.97;nan
12146;BME280;6136;47.032;15.398;2022-10-15T12:46:12;97461.25;;;15.87;nan
12146;BME280;6136;47.032;15.398;2022-10-15T12:48:41;97453.19;;;15.99;nan
12146;BME280;6136;47.032;15.398;2022-10-15T12:51:37;97459.69;;;16.06;nan
12146;BME280;6136;47.032;15.398;2022-10-15T12:54:34;97461.34;;;15.97;nan
12146;BME280;6136;47.032;15.398;2022-10-15T13:03:34;97461.00;;;15.90;nan
12146;BME280;6136;47.032;15.398;2022-10-15T13:06:14;97456.22;;;15.94;nan
12146;BME280;6136;47.032;15.398;2022-10-15T13:08:51;97444.22;;;16.09;nan
12146;BME280;6136;47.032;15.398;2022-10-15T13:11:23;97464.50;;;16.12;nan
12146;BME280;6136;47.032;15.398;2022-10-15T13:13:57;97456.94;;;16.17;nan
12146;BME280;6136;47.032;15.398;2022-10-15T13:16:27;97466.78;;;16.16;nan
12146;BME280;6136;47.032;15.398;2022-10-15T13:18:57;97461.34;;;15.97;nan
12146;BME280;6136;47.032;15.398;2022-10-15T13:21:47;97452.88;;;15.92;nan
12146;BME280;6136;47.032;15.398;2022-10-15T13:24:21;97467.00;;;16.04;nan
12146;BME280;6136;47.032;15.398;2022-10-15T13:26:50;97469.59;;;16.15;nan
12146;BME280;6136;47.032;15.398;2022-10-15T13:29:21;97465.50;;;16.11;nan
12146;BME280;6136;47.032;15.398;2022-10-15T13:31:51;97465.69;;;16.19;nan
12146;BME280;6136;47.032;15.398;2022-10-15T13:34:28;97475.53;;;16.18;nan
12146;BME280;6136;47.032;15.398;2022-10-15T13:36:59;97478.59;;;16.14;nan
12146;BME280;6136;47.032;15.398;2022-10-15T13:39:30;97477.09;;;16.21;nan
12146;BME280;6136;47.032;15.398;2022-10-15T13:42:13;97471.94;;;16.29;nan
12146;BME280;6136;47.032;15.398;2022-10-15T13:44:43;97475.75;;;16.36;nan
12146;BME280;6136;47.032;15.398;2022-10-15T13:47:29;97473.25;;;16.65;nan
12146;BME280;6136;47.032;15.398;2022-10-15T13:50:15;97474.94;;;16.66;nan
12146;BME280;6136;47.032;15.398;2022-10-15T13:52:46;97475.78;;;16.66;nan
12146;BME280;6136;47.032;15.398;2022-10-15T13:55:19;97474.59;;;16.59;nan
12146;BME280;6136;47.032;15.398;2022-10-15T13:57:49;97475.66;;;16.47;nan
12146;BME280;6136;47.032;15.398;2022-10-15T14:00:21;97476.50;;;16.48;nan
12146;BME280;6136;47.032;15.398;2022-10-15T14:03:13;97473.63;;;16.60;nan